Time;durP1;ratioP1;P1;durP2;ratioP2;P2;SDS_P1;SDS_P2;PMS_P1;PMS_P2;Temp;Humidity;BMP_temperature;BMP_pressure;BME280_temperature;BME280_humidity;BME280_pressure;Samples;Min_cycle;Max_cycle;Signal;HPM_P1;HPM_P2
2021/04/20 10:47:22;;;;;;;29.65;26.60;;;18.60;87.50;;;17.40;100.00;100355.09;5028766;28;20675;-59
2021/04/20 10:50:36;;;;;;;29.63;26.60;;;18.90;81.20;;;17.88;100.00;100349.69;5030081;28;20601;-59
2021/04/20 10:53:49;;;;;;;30.63;27.17;;;19.00;81.10;;;17.42;100.00;100349.50;5029939;28;20500;-59
2021/04/20 21:21:57;;;;;;;11.63;10.43;;;8.90;99.90;;;10.00;100.00;100177.44;4868555;28;100292;-60
2021/04/20 21:24:43;;;;;;;11.90;10.80;;;8.80;99.90;;;9.93;100.00;100178.19;4867255;28;100653;-58
2021/04/20 21:27:19;;;;;;;11.23;10.07;;;8.70;99.90;;;10.08;100.00;100172.13;4893531;28;100192;-61
2021/04/20 21:29:58;;;;;;;11.90;10.70;;;8.70;99.90;;;9.92;100.00;100173.84;4931809;28;100090;-58
2021/04/20 21:32:28;;;;;;;15.63;11.73;;;8.70;99.90;;;9.97;100.00;100177.72;4914560;28;99956;-60
2021/04/20 21:34:58;;;;;;;12.63;10.13;;;8.70;99.90;;;10.22;100.00;100185.94;4920665;28;100800;-60
2021/04/20 21:37:33;;;;;;;11.80;10.60;;;8.60;99.90;;;10.16;100.00;100183.84;4931695;28;100340;-61
2021/04/20 21:40:04;;;;;;;12.07;10.33;;;8.60;99.90;;;10.47;100.00;100174.38;4948183;28;100787;-61
2021/04/20 21:42:35;;;;;;;11.97;10.83;;;8.50;99.90;;;10.28;100.00;100175.44;4945178;28;97688;-59
2021/04/20 21:45:04;;;;;;;12.73;11.43;;;8.50;99.90;;;10.26;100.00;100173.94;4939107;28;99786;-60
2021/04/20 21:47:33;;;;;;;13.00;11.70;;;8.40;99.90;;;10.23;100.00;100175.09;4955554;28;98379;-61
2021/04/20 21:50:03;;;;;;;12.90;10.53;;;8.40;99.90;;;10.31;100.00;100179.63;4948134;28;99434;-60
2021/04/20 21:52:35;;;;;;;14.53;13.03;;;8.30;99.90;;;10.13;100.00;100171.66;4962785;28;93237;-60
2021/04/20 21:55:07;;;;;;;15.00;13.53;;;8.30;99.90;;;10.25;100.00;100178.44;4983882;28;78017;-61
2021/04/20 21:57:36;;;;;;;19.93;16.83;;;8.20;99.90;;;10.01;100.00;100175.59;4966020;28;99217;-61
2021/04/20 22:00:11;;;;;;;18.60;15.93;;;8.20;99.90;;;10.03;100.00;100173.56;4958708;28;99100;-60
2021/04/20 22:02:45;;;;;;;18.10;15.27;;;8.10;99.90;;;10.05;100.00;100182.28;4958608;28;99478;-61
2021/04/20 22:05:13;;;;;;;17.93;16.03;;;8.10;99.90;;;10.07;100.00;100177.63;4958954;28;95085;-61
2021/04/20 22:07:47;;;;;;;22.90;18.37;;;8.00;99.90;;;10.01;100.00;100172.91;4962881;28;91647;-59
2021/04/20 22:10:26;;;;;;;20.80;17.97;;;8.00;99.90;;;9.81;100.00;100174.94;4967746;28;87973;-60
2021/04/20 22:12:55;;;;;;;19.37;17.10;;;7.90;99.90;;;9.64;100.00;100178.50;4945835;28;97212;-61
2021/04/20 22:15:31;;;;;;;20.80;16.77;;;7.90;99.90;;;9.72;100.00;100181.22;4950951;28;86201;-59
2021/04/20 22:18:06;;;;;;;18.00;16.27;;;7.90;99.90;;;9.81;100.00;100179.44;4955661;28;93471;-60
2021/04/20 22:20:33;;;;;;;17.13;14.93;;;7.90;99.90;;;9.87;100.00;100181.50;4955310;28;98444;-59
2021/04/20 22:23:16;;;;;;;15.57;14.03;;;7.80;99.90;;;9.78;100.00;100177.91;4918469;28;99878;-61
2021/04/20 22:25:45;;;;;;;17.30;15.30;;;7.80;99.90;;;9.62;100.00;100184.00;4939308;28;98263;-60
2021/04/20 22:28:15;;;;;;;16.00;14.27;;;7.70;99.90;;;9.80;100.00;100183.94;4952836;28;97931;-61
2021/04/20 22:30:45;;;;;;;17.90;16.20;;;7.70;99.90;;;9.76;100.00;100187.94;4965439;28;98476;-59
2021/04/20 22:33:15;;;;;;;18.63;16.60;;;7.70;99.90;;;9.59;100.00;100186.97;4974904;28;96820;-60
2021/04/20 22:36:01;;;;;;;17.87;15.97;;;7.60;99.90;;;9.47;100.00;100182.84;4971927;28;93653;-61
2021/04/20 22:38:44;;;;;;;15.83;14.00;;;7.60;99.90;;;9.38;100.00;100188.28;4974757;28;95473;-61
2021/04/20 22:41:17;;;;;;;16.57;14.83;;;7.50;99.90;;;9.42;100.00;100181.63;4971447;28;90510;-60
2021/04/20 22:43:56;;;;;;;14.30;12.80;;;7.50;99.90;;;9.34;100.00;100190.41;4966879;28;96129;-59
2021/04/20 22:46:31;;;;;;;15.60;13.93;;;7.40;99.90;;;9.40;100.00;100191.59;4972423;28;92117;-60
2021/04/20 22:49:05;;;;;;;14.57;13.07;;;7.30;99.90;;;9.33;100.00;100191.38;4961869;28;96182;-59
2021/04/20 22:51:40;;;;;;;14.97;13.53;;;7.30;99.90;;;9.16;100.00;100190.38;4941184;28;96617;-60
2021/04/20 22:54:10;;;;;;;15.00;13.50;;;7.30;99.90;;;9.02;100.00;100190.94;4942814;28;97610;-59
2021/04/20 22:56:37;;;;;;;14.13;12.67;;;7.20;99.90;;;8.99;100.00;100192.06;4945451;28;99726;-60
2021/04/20 22:59:04;;;;;;;19.60;13.10;;;7.20;99.90;;;8.68;100.00;100188.00;4935742;28;99486;-61
2021/04/20 23:01:34;;;;;;;14.80;12.50;;;7.20;99.90;;;8.77;100.00;100194.31;4936079;28;97829;-59
2021/04/20 23:04:05;;;;;;;14.33;12.80;;;7.10;99.90;;;8.70;100.00;100187.88;4959067;28;100259;-58
2021/04/20 23:06:35;;;;;;;13.60;12.23;;;7.00;99.90;;;8.63;100.00;100188.47;4953368;28;99538;-60
2021/04/20 23:09:11;;;;;;;15.97;14.43;;;7.00;99.90;;;8.47;100.00;100185.59;4954959;28;100762;-60
2021/04/20 23:11:45;;;;;;;16.43;14.83;;;6.90;99.90;;;8.62;100.00;100188.63;4952418;28;100095;-60
2021/04/20 23:14:16;;;;;;;17.47;15.60;;;6.90;99.90;;;8.07;100.00;100190.31;4952911;28;99275;-58
2021/04/20 23:16:45;;;;;;;19.63;17.13;;;6.80;99.90;;;8.08;100.00;100189.34;4957139;28;100052;-60
2021/04/20 23:19:14;;;;;;;17.53;15.63;;;6.80;99.90;;;8.07;100.00;100191.16;4963656;28;96489;-60
2021/04/20 23:21:44;;;;;;;20.03;17.10;;;6.80;99.90;;;8.02;100.00;100189.94;4962930;28;93821;-60
2021/04/20 23:24:20;;;;;;;19.53;17.63;;;6.80;99.90;;;8.04;100.00;100185.28;4972469;28;99409;-60
2021/04/20 23:26:54;;;;;;;17.33;15.33;;;6.80;99.90;;;7.88;100.00;100191.22;4969253;28;90859;-59
2021/04/20 23:29:34;;;;;;;16.27;14.57;;;6.70;99.90;;;7.92;100.00;100182.78;4967193;28;93417;-60
2021/04/20 23:32:05;;;;;;;17.60;15.90;;;6.70;99.90;;;7.83;100.00;100191.66;4968378;28;91769;-58
2021/04/20 23:34:35;;;;;;;17.57;15.63;;;6.70;99.90;;;7.94;100.00;100199.47;4959507;28;99830;-60
2021/04/20 23:37:02;;;;;;;18.80;16.73;;;6.60;99.90;;;8.06;100.00;100186.81;4973725;28;97593;-59
2021/04/20 23:39:30;;;;;;;16.20;14.13;;;6.60;99.90;;;8.18;100.00;100187.50;4965090;28;99567;-58
2021/04/20 23:41:58;;;;;;;17.47;15.77;;;6.60;99.90;;;8.03;100.00;100181.81;4942508;28;97750;-59
2021/04/20 23:44:25;;;;;;;18.80;16.37;;;6.60;99.90;;;7.68;100.00;100182.41;4954359;28;98564;-60
2021/04/20 23:46:53;;;;;;;15.70;14.13;;;6.50;99.90;;;8.08;100.00;100179.53;4954483;28;99553;-61
2021/04/20 23:49:21;;;;;;;18.37;16.57;;;6.50;99.90;;;7.91;100.00;100180.28;4963137;28;94494;-59
2021/04/20 23:51:50;;;;;;;17.43;15.40;;;6.50;99.90;;;8.16;100.00;100182.28;4961205;28;94783;-60
2021/04/20 23:54:18;;;;;;;18.77;16.20;;;6.40;99.90;;;7.44;100.00;100182.00;4967031;28;95124;-59
2021/04/20 23:56:47;;;;;;;14.87;13.37;;;6.40;99.90;;;7.94;100.00;100182.66;4967920;28;93223;-59
2021/04/20 23:59:15;;;;;;;15.23;13.63;;;6.40;99.90;;;7.52;100.00;100174.19;4963990;28;96318;-59
